createdAt,value
2019-01-28T00:00:52.484Z,95836.96
2019-01-28T00:03:21.950Z,95841.92
2019-01-28T00:05:51.201Z,95840.58
2019-01-28T00:08:20.689Z,95855.52
2019-01-28T00:10:49.926Z,95864.81
2019-01-28T00:13:19.193Z,95870.63
2019-01-28T00:15:50.833Z,95880.30
2019-01-28T00:18:20.111Z,95879.45
2019-01-28T00:20:49.360Z,95893.08
2019-01-28T00:23:18.642Z,95888.02
2019-01-28T00:25:47.988Z,95892.41
2019-01-28T00:28:17.691Z,95906.23
2019-01-28T00:30:46.946Z,95912.89
2019-01-28T00:33:16.203Z,95914.18
2019-01-28T00:35:45.485Z,95922.18
2019-01-28T00:38:14.746Z,95929.56
2019-01-28T00:40:44.025Z,95937.05
2019-01-28T00:43:13.277Z,95942.91
2019-01-28T00:45:42.561Z,95958.45
2019-01-28T00:48:11.809Z,95955.92
2019-01-28T00:50:41.069Z,95960.53
2019-01-28T00:53:10.344Z,95954.12
2019-01-28T00:55:39.589Z,95972.34
2019-01-28T00:58:08.877Z,95968.62
2019-01-28T01:00:38.130Z,95975.22
2019-01-28T01:03:07.591Z,95985.13
2019-01-28T01:05:36.839Z,95987.38
2019-01-28T01:08:06.226Z,95992.59
2019-01-28T01:10:35.496Z,95992.09
2019-01-28T01:13:05.562Z,95978.42
2019-01-28T01:15:35.026Z,95995.09
2019-01-28T01:18:04.787Z,96008.13
2019-01-28T01:20:34.074Z,96008.80
2019-01-28T01:23:03.358Z,96006.45
2019-01-28T01:25:32.633Z,96016.20
2019-01-28T01:28:01.992Z,96018.28
2019-01-28T01:30:31.282Z,96011.35
2019-01-28T01:33:00.551Z,96018.25
2019-01-28T01:35:29.857Z,96023.70
2019-01-28T01:37:59.128Z,96029.30
2019-01-28T01:40:28.369Z,96027.73
2019-01-28T01:42:57.645Z,96035.25
2019-01-28T01:45:26.888Z,96040.80
2019-01-28T01:47:56.167Z,96044.38
2019-01-28T01:50:25.411Z,96051.72
2019-01-28T01:52:54.680Z,96058.69
2019-01-28T01:55:23.955Z,96057.56
2019-01-28T01:57:53.219Z,96055.09
2019-01-28T02:00:22.483Z,96057.22
2019-01-28T02:02:51.726Z,96064.73
2019-01-28T02:05:21.010Z,96071.21
2019-01-28T02:07:50.472Z,96064.33
2019-01-28T02:10:19.770Z,96076.55
2019-01-28T02:12:49.023Z,96076.65
2019-01-28T02:15:19.779Z,96078.16
2019-01-28T02:17:49.071Z,96082.14
2019-01-28T02:20:18.347Z,96087.06
2019-01-28T02:22:47.610Z,96082.23
2019-01-28T02:25:17.081Z,96089.36
2019-01-28T02:27:46.357Z,96084.66
2019-01-28T02:30:17.349Z,96081.41
2019-01-28T02:32:47.670Z,96086.33
2019-01-28T02:35:18.028Z,96086.42
2019-01-28T02:37:47.322Z,96088.34
2019-01-28T02:40:17.876Z,96087.23
2019-01-28T02:42:47.127Z,96090.37
2019-01-28T02:45:17.427Z,96087.55
2019-01-28T02:47:46.802Z,96078.00
2019-01-28T02:50:17.849Z,96068.58
2019-01-28T02:52:47.485Z,96065.91
2019-01-28T02:55:17.759Z,96062.97
2019-01-28T02:57:47.792Z,96066.34
2019-01-28T03:00:23.917Z,96052.91
2019-01-28T03:02:53.182Z,96049.97
2019-01-28T03:05:22.451Z,96054.23
2019-01-28T03:07:51.722Z,96057.83
2019-01-28T03:10:23.023Z,96053.13
2019-01-28T03:12:52.282Z,96055.83
2019-01-28T03:15:22.257Z,96051.09
2019-01-28T03:17:51.528Z,96061.20
2019-01-28T03:20:21.000Z,96063.05
2019-01-28T03:22:50.378Z,96069.12
2019-01-28T03:25:20.489Z,96072.32
2019-01-28T03:27:49.730Z,96070.52
2019-01-28T03:30:20.665Z,96075.80
2019-01-28T03:32:50.309Z,96082.31
2019-01-28T03:35:20.388Z,96080.23
2019-01-28T03:37:49.676Z,96079.55
2019-01-28T03:40:20.634Z,96081.80
2019-01-28T03:42:50.626Z,96081.02
2019-01-28T03:45:21.331Z,96086.62
2019-01-28T03:47:50.620Z,96077.53
2019-01-28T03:50:21.220Z,96081.45
2019-01-28T03:52:50.755Z,96086.40
2019-01-28T03:55:20.106Z,96089.09
2019-01-28T03:57:49.388Z,96075.19
2019-01-28T04:00:23.533Z,96087.18
2019-01-28T04:02:52.816Z,96088.41
2019-01-28T04:05:23.694Z,96092.86
2019-01-28T04:07:52.964Z,96103.85
2019-01-28T04:10:23.791Z,96095.04
2019-01-28T04:12:53.087Z,96096.38
2019-01-28T04:15:23.902Z,96087.31
2019-01-28T04:17:53.182Z,96079.51
2019-01-28T04:20:24.288Z,96078.18
2019-01-28T04:22:53.542Z,96080.77
2019-01-28T04:25:23.979Z,96091.19
2019-01-28T04:27:53.301Z,96087.38
2019-01-28T04:30:24.201Z,96094.56
2019-01-28T04:32:53.477Z,96090.30
2019-01-28T04:35:22.752Z,96093.66
2019-01-28T04:37:52.039Z,96094.17
2019-01-28T04:40:21.302Z,96084.92
2019-01-28T04:42:50.549Z,96082.00
2019-01-28T04:45:20.031Z,96086.66
2019-01-28T04:47:49.520Z,96081.53
2019-01-28T04:50:20.083Z,96089.79
2019-01-28T04:52:49.573Z,96089.22
2019-01-28T04:55:19.265Z,96079.00
2019-01-28T04:57:48.494Z,96074.08
2019-01-28T05:00:23.373Z,96081.38
2019-01-28T05:02:52.724Z,96079.06
2019-01-28T05:05:22.275Z,96075.28
2019-01-28T05:07:51.533Z,96075.72
2019-01-28T05:10:21.223Z,96074.36
2019-01-28T05:12:50.817Z,96073.92
2019-01-28T05:15:20.414Z,96068.31
2019-01-28T05:17:49.692Z,96067.86
2019-01-28T05:20:20.433Z,96057.83
2019-01-28T05:22:49.696Z,96067.87
2019-01-28T05:25:19.071Z,96068.53
2019-01-28T05:27:48.836Z,96069.38
2019-01-28T05:30:23.227Z,96071.06
2019-01-28T05:32:52.759Z,96071.61
2019-01-28T05:35:22.720Z,96067.33
2019-01-28T05:37:52.023Z,96070.19
2019-01-28T05:40:23.286Z,96071.03
2019-01-28T05:42:53.998Z,96065.54
2019-01-28T05:45:23.861Z,96061.97
2019-01-28T05:47:53.171Z,96068.91
2019-01-28T05:50:22.429Z,96067.79
2019-01-28T05:52:51.707Z,96066.34
2019-01-28T05:55:20.988Z,96066.34
2019-01-28T05:57:50.328Z,96056.92
2019-01-28T06:00:23.490Z,96057.12
2019-01-28T06:02:52.978Z,96066.54
2019-01-28T06:05:22.719Z,96052.59
2019-01-28T06:07:52.407Z,96061.37
2019-01-28T06:10:23.259Z,96059.47
2019-01-28T06:12:52.882Z,96054.94
2019-01-28T06:15:22.557Z,96050.95
2019-01-28T06:17:52.154Z,96053.30
2019-01-28T06:20:22.822Z,96069.90
2019-01-28T06:22:52.382Z,96057.62
2019-01-28T06:25:22.143Z,96056.70
2019-01-28T06:27:51.821Z,96060.74
2019-01-28T06:30:23.939Z,96052.63
2019-01-28T06:32:53.650Z,96062.03
2019-01-28T06:35:23.196Z,96055.97
2019-01-28T06:37:52.942Z,96055.28
2019-01-28T06:40:26.015Z,96060.44
2019-01-28T06:42:55.455Z,96055.22
2019-01-28T06:45:25.467Z,96057.12
2019-01-28T06:47:54.905Z,96058.89
2019-01-28T06:50:24.965Z,96069.90
2019-01-28T06:52:54.484Z,96060.70
2019-01-28T06:55:23.774Z,96065.68
2019-01-28T06:57:53.065Z,96065.54
2019-01-28T07:00:25.350Z,96064.30
2019-01-28T07:02:54.787Z,96071.47
2019-01-28T07:05:24.127Z,96070.46
2019-01-28T07:07:53.406Z,96077.76
2019-01-28T07:10:22.672Z,96077.64
2019-01-28T07:12:51.928Z,96073.16
2019-01-28T07:15:25.355Z,96073.62
2019-01-28T07:17:55.311Z,96081.63
2019-01-28T07:20:29.013Z,96077.59
2019-01-28T07:22:58.370Z,96071.94
2019-01-28T07:25:27.609Z,96075.75
2019-01-28T07:27:56.926Z,96073.64
2019-01-28T07:30:34.559Z,96064.78
2019-01-28T07:33:04.095Z,96059.20
2019-01-28T07:35:33.378Z,96072.47
2019-01-28T07:38:02.681Z,96069.39
2019-01-28T07:40:31.954Z,96076.49
2019-01-28T07:43:01.199Z,96083.11
2019-01-28T07:45:45.323Z,96073.82
2019-01-28T07:48:11.839Z,96076.77
2019-01-28T07:50:41.124Z,96087.98
2019-01-28T07:53:10.416Z,96076.03
2019-01-28T07:55:39.735Z,96080.59
2019-01-28T07:58:09.017Z,96082.80
2019-01-28T08:00:38.267Z,96083.92
2019-01-28T08:03:07.892Z,96074.52
2019-01-28T08:05:37.143Z,96070.48
2019-01-28T08:08:06.981Z,96072.42
2019-01-28T08:10:36.269Z,96062.11
2019-01-28T08:13:06.142Z,96065.70
2019-01-28T08:15:35.410Z,96067.55
2019-01-28T08:18:10.539Z,96066.95
2019-01-28T08:20:35.990Z,96066.49
2019-01-28T08:23:06.098Z,96069.23
2019-01-28T08:25:35.383Z,96074.63
2019-01-28T08:28:05.062Z,96069.06
2019-01-28T08:30:36.688Z,96064.31
2019-01-28T08:33:07.377Z,96065.88
2019-01-28T08:35:38.100Z,96073.84
2019-01-28T08:38:07.619Z,96061.84
2019-01-28T08:40:37.093Z,96067.23
2019-01-28T08:43:06.338Z,96063.99
2019-01-28T08:45:35.689Z,96057.94
2019-01-28T08:48:05.159Z,96054.31
2019-01-28T08:50:34.455Z,96059.53
2019-01-28T08:53:03.713Z,96051.67
2019-01-28T08:55:32.990Z,96056.78
2019-01-28T08:58:02.266Z,96058.77
2019-01-28T09:00:36.798Z,96056.22
2019-01-28T09:03:06.049Z,96059.27
2019-01-28T09:05:35.604Z,96059.17
2019-01-28T09:08:05.855Z,96051.81
2019-01-28T09:10:35.595Z,96046.03
2019-01-28T09:13:05.531Z,96049.30
2019-01-28T09:15:35.000Z,96045.52
2019-01-28T09:18:04.623Z,96046.50
2019-01-28T09:20:34.440Z,96047.01
2019-01-28T09:23:03.752Z,96045.26
2019-01-28T09:25:33.028Z,96046.34
2019-01-28T09:28:02.325Z,96049.60
2019-01-28T09:30:33.022Z,96050.25
2019-01-28T09:33:02.287Z,96055.25
2019-01-28T09:35:33.380Z,96052.05
2019-01-28T09:38:02.659Z,96051.63
2019-01-28T09:40:33.704Z,96051.67
2019-01-28T09:43:02.923Z,96057.56
2019-01-28T09:45:35.020Z,96054.31
2019-01-28T09:48:04.612Z,96051.61
2019-01-28T09:50:33.885Z,96055.91
2019-01-28T09:53:03.148Z,96061.26
2019-01-28T09:55:32.681Z,96049.23
2019-01-28T09:58:01.941Z,96064.45
2019-01-28T10:00:34.125Z,96051.97
2019-01-28T10:03:03.381Z,96057.12
2019-01-28T10:05:32.626Z,96065.00
2019-01-28T10:08:01.921Z,96060.17
2019-01-28T10:10:31.363Z,96065.00
2019-01-28T10:13:02.657Z,96064.12
2019-01-28T10:15:31.901Z,96064.80
2019-01-28T10:18:01.212Z,96074.38
2019-01-28T10:20:32.937Z,96066.69
2019-01-28T10:23:02.410Z,96061.47
2019-01-28T10:25:31.776Z,96063.61
2019-01-28T10:28:01.080Z,96063.47
2019-01-28T10:30:35.434Z,96059.09
2019-01-28T10:33:05.752Z,96061.91
2019-01-28T10:35:35.328Z,96056.34
2019-01-28T10:38:05.025Z,96057.95
2019-01-28T10:40:36.420Z,96056.16
2019-01-28T10:43:06.718Z,96053.98
2019-01-28T10:45:35.982Z,96053.86
2019-01-28T10:48:06.499Z,96060.60
2019-01-28T10:50:36.727Z,96046.86
2019-01-28T10:53:06.295Z,96051.12
2019-01-28T10:55:35.762Z,96052.47
2019-01-28T10:58:05.802Z,96051.38
2019-01-28T11:00:40.659Z,96054.66
2019-01-28T11:03:11.200Z,96056.98
2019-01-28T11:05:40.443Z,96049.38
2019-01-28T11:08:09.835Z,96047.30
2019-01-28T11:10:39.184Z,96042.69
2019-01-28T11:13:08.814Z,96052.80
2019-01-28T11:15:38.105Z,96041.84
2019-01-28T11:18:12.428Z,96044.10
2019-01-28T11:20:41.856Z,96041.08
2019-01-28T11:23:11.120Z,96042.88
2019-01-28T11:25:40.428Z,96033.23
2019-01-28T11:28:09.747Z,96048.03
2019-01-28T11:30:43.918Z,96035.87
2019-01-28T11:33:13.273Z,96029.97
2019-01-28T11:35:43.806Z,96033.10
2019-01-28T11:38:14.452Z,96039.41
2019-01-28T11:40:43.719Z,96031.39
2019-01-28T11:43:13.016Z,96030.63
2019-01-28T11:45:45.848Z,96022.09
2019-01-28T11:48:15.352Z,96038.02
2019-01-28T11:50:44.821Z,96030.14
2019-01-28T11:53:14.068Z,96040.02
2019-01-28T11:55:43.364Z,96025.41
2019-01-28T11:58:12.621Z,96029.83
2019-01-28T12:00:51.588Z,96033.64
2019-01-28T12:03:20.855Z,96032.88
2019-01-28T12:05:50.138Z,96035.90
2019-01-28T12:08:19.728Z,96038.12
2019-01-28T12:10:49.002Z,96040.59
2019-01-28T12:13:18.256Z,96038.98
2019-01-28T12:15:47.546Z,96039.90
2019-01-28T12:18:17.271Z,96027.06
2019-01-28T12:20:53.518Z,96035.42
2019-01-28T12:23:17.766Z,96027.75
2019-01-28T12:25:48.577Z,96030.94
2019-01-28T12:28:18.080Z,96037.72
2019-01-28T12:30:47.835Z,96038.33
2019-01-28T12:33:17.150Z,96039.81
2019-01-28T12:35:46.452Z,96032.80
2019-01-28T12:38:15.695Z,96028.36
2019-01-28T12:40:44.989Z,96033.41
2019-01-28T12:43:14.513Z,96027.88
2019-01-28T12:45:43.801Z,96040.31
2019-01-28T12:48:13.077Z,96032.23
2019-01-28T12:50:42.467Z,96041.08
2019-01-28T12:53:11.753Z,96039.11
2019-01-28T12:55:41.027Z,96031.92
2019-01-28T12:58:10.306Z,96039.45
2019-01-28T13:00:45.655Z,96037.84
2019-01-28T13:03:14.923Z,96034.09
2019-01-28T13:05:44.159Z,96039.69
2019-01-28T13:08:13.443Z,96032.13
2019-01-28T13:10:42.995Z,96047.81
2019-01-28T13:13:12.271Z,96030.52
2019-01-28T13:15:41.620Z,96047.42
2019-01-28T13:18:10.903Z,96056.95
2019-01-28T13:20:40.398Z,96052.52
2019-01-28T13:23:09.904Z,96048.77
2019-01-28T13:25:39.191Z,96053.59
2019-01-28T13:28:08.779Z,96051.30
2019-01-28T13:30:38.879Z,96045.44
2019-01-28T13:33:13.401Z,96046.29
2019-01-28T13:35:43.034Z,96057.45
2019-01-28T13:38:12.289Z,96052.52
2019-01-28T13:40:41.578Z,96039.96
2019-01-28T13:43:12.730Z,96054.03
2019-01-28T13:45:41.972Z,96052.18
2019-01-28T13:48:13.767Z,96061.33
2019-01-28T13:50:43.028Z,96065.28
2019-01-28T13:53:13.191Z,96070.04
2019-01-28T13:55:42.502Z,96063.08
2019-01-28T13:58:11.902Z,96058.35
2019-01-28T14:00:41.254Z,96062.67
2019-01-28T14:03:10.551Z,96067.40
2019-01-28T14:05:39.837Z,96066.00
2019-01-28T14:08:09.386Z,96066.62
2019-01-28T14:10:39.720Z,96067.89
2019-01-28T14:13:09.070Z,96079.58
2019-01-28T14:15:40.360Z,96079.62
2019-01-28T14:18:12.048Z,96077.88
2019-01-28T14:20:42.362Z,96079.51
2019-01-28T14:23:12.842Z,96086.88
2019-01-28T14:25:42.095Z,96087.82
2019-01-28T14:28:12.552Z,96087.38
2019-01-28T14:30:49.423Z,96087.17
2019-01-28T14:33:18.931Z,96093.04
2019-01-28T14:35:48.170Z,96095.50
2019-01-28T14:38:17.423Z,96094.41
2019-01-28T14:40:47.731Z,96094.93
2019-01-28T14:43:16.991Z,96098.70
2019-01-28T14:45:46.270Z,96095.38
2019-01-28T14:48:15.847Z,96101.20
2019-01-28T14:50:45.110Z,96102.96
2019-01-28T14:53:14.429Z,96102.52
2019-01-28T14:55:44.999Z,96102.29
2019-01-28T14:58:16.724Z,96099.60
2019-01-28T15:00:47.420Z,96099.21
2019-01-28T15:03:16.704Z,96106.16
2019-01-28T15:05:45.950Z,96105.69
2019-01-28T15:08:15.322Z,96092.69
2019-01-28T15:10:44.830Z,96098.73
2019-01-28T15:13:14.092Z,96098.48
2019-01-28T15:15:43.387Z,96098.96
2019-01-28T15:18:15.101Z,96108.80
2019-01-28T15:20:44.380Z,96107.03
2019-01-28T15:23:15.464Z,96103.52
2019-01-28T15:25:45.017Z,96115.74
2019-01-28T15:28:14.319Z,96121.34
2019-01-28T15:30:43.616Z,96118.23
2019-01-28T15:33:13.218Z,96114.87
2019-01-28T15:35:42.525Z,96114.89
2019-01-28T15:38:11.899Z,96126.77
2019-01-28T15:40:41.371Z,96120.95
2019-01-28T15:43:10.621Z,96129.02
2019-01-28T15:45:42.031Z,96134.82
2019-01-28T15:48:11.793Z,96132.13
2019-01-28T15:50:41.078Z,96132.36
2019-01-28T15:53:10.329Z,96132.24
2019-01-28T15:55:41.530Z,96137.73
2019-01-28T15:58:11.887Z,96138.85
2019-01-28T16:00:43.204Z,96145.47
2019-01-28T16:03:12.554Z,96145.58
2019-01-28T16:05:42.101Z,96146.70
2019-01-28T16:08:11.366Z,96154.33
2019-01-28T16:10:40.738Z,96151.16
2019-01-28T16:13:09.982Z,96160.13
2019-01-28T16:15:41.758Z,96161.47
2019-01-28T16:18:11.666Z,96161.02
2019-01-28T16:20:41.299Z,96169.77
2019-01-28T16:23:10.581Z,96177.06
2019-01-28T16:25:39.958Z,96172.69
2019-01-28T16:28:09.221Z,96177.84
2019-01-28T16:30:39.074Z,96174.92
2019-01-28T16:33:08.561Z,96186.12
2019-01-28T16:35:37.963Z,96184.79
2019-01-28T16:38:07.267Z,96189.50
2019-01-28T16:40:37.106Z,96199.58
2019-01-28T16:43:06.994Z,96195.09
2019-01-28T16:45:36.530Z,96197.14
2019-01-28T16:48:07.762Z,96201.05
2019-01-28T16:50:37.310Z,96208.31
2019-01-28T16:53:07.721Z,96209.47
2019-01-28T16:55:37.444Z,96206.21
2019-01-28T16:58:07.888Z,96204.75
2019-01-28T17:00:42.054Z,96217.97
2019-01-28T17:03:12.837Z,96213.04
2019-01-28T17:05:42.699Z,96226.02
2019-01-28T17:08:12.009Z,96228.95
2019-01-28T17:10:41.371Z,96226.92
2019-01-28T17:13:10.834Z,96233.17
2019-01-28T17:15:40.082Z,96232.84
2019-01-28T17:18:09.557Z,96235.87
2019-01-28T17:20:38.811Z,96241.58
2019-01-28T17:23:08.413Z,96243.05
2019-01-28T17:25:43.350Z,96243.48
2019-01-28T17:28:12.639Z,96237.63
2019-01-28T17:30:44.122Z,96246.48
2019-01-28T17:33:13.493Z,96249.30
2019-01-28T17:35:42.956Z,96249.30
2019-01-28T17:38:12.247Z,96252.11
2019-01-28T17:40:43.397Z,96253.76
2019-01-28T17:43:13.618Z,96257.23
2019-01-28T17:45:43.214Z,96263.17
2019-01-28T17:48:12.681Z,96263.17
2019-01-28T17:50:43.627Z,96267.66
2019-01-28T17:53:13.465Z,96271.66
2019-01-28T17:55:42.755Z,96279.30
2019-01-28T17:58:12.014Z,96274.70
2019-01-28T18:00:50.273Z,96279.98
2019-01-28T18:03:19.667Z,96285.12
2019-01-28T18:05:48.947Z,96292.96
2019-01-28T18:08:18.216Z,96290.93
2019-01-28T18:10:47.459Z,96292.50
2019-01-28T18:13:16.718Z,96295.65
2019-01-28T18:15:45.982Z,96298.77
2019-01-28T18:18:15.346Z,96296.77
2019-01-28T18:20:51.443Z,96303.16
2019-01-28T18:23:41.423Z,96304.83
2019-01-28T18:26:10.751Z,96296.67
2019-01-28T18:28:40.027Z,96302.66
2019-01-28T18:31:09.293Z,96311.97
2019-01-28T18:33:38.548Z,96309.88
2019-01-28T18:36:07.833Z,96309.41
2019-01-28T18:38:37.073Z,96313.78
2019-01-28T18:41:06.770Z,96316.23
2019-01-28T18:43:36.044Z,96323.41
2019-01-28T18:46:05.948Z,96319.94
2019-01-28T18:48:35.219Z,96325.61
2019-01-28T18:51:04.471Z,96329.44
2019-01-28T18:53:33.752Z,96332.12
2019-01-28T18:56:03.014Z,96337.92
2019-01-28T18:58:32.279Z,96343.56
2019-01-28T19:01:01.523Z,96340.88
2019-01-28T19:03:30.803Z,96348.06
2019-01-28T19:06:24.965Z,96353.89
2019-01-28T19:09:13.222Z,96359.47
2019-01-28T19:12:09.065Z,96362.94
2019-01-28T19:14:57.282Z,96372.48
2019-01-28T19:17:52.561Z,96374.02
2019-01-28T19:20:44.106Z,96374.48
2019-01-28T19:23:14.814Z,96384.12
2019-01-28T19:25:44.112Z,96393.75
2019-01-28T19:28:14.012Z,96388.61
2019-01-28T19:30:43.296Z,96401.59
2019-01-28T19:33:12.559Z,96404.97
2019-01-28T19:35:41.830Z,96408.96
2019-01-28T19:38:11.122Z,96417.48
2019-01-28T19:40:40.373Z,96413.69
2019-01-28T19:43:09.671Z,96421.33
2019-01-28T19:45:39.357Z,96431.75
2019-01-28T19:48:08.656Z,96432.31
2019-01-28T19:50:38.257Z,96438.15
2019-01-28T19:53:07.921Z,96436.58
2019-01-28T19:55:37.195Z,96446.63
2019-01-28T19:58:06.907Z,96442.83
2019-01-28T20:00:36.185Z,96454.66
2019-01-28T20:03:08.305Z,96471.05
2019-01-28T20:05:37.596Z,96464.57
2019-01-28T20:08:06.871Z,96471.29
2019-01-28T20:10:36.148Z,96476.66
2019-01-28T20:13:05.419Z,96474.86
2019-01-28T20:15:34.722Z,96482.69
2019-01-28T20:18:03.975Z,96480.88
2019-01-28T20:20:33.226Z,96485.38
2019-01-28T20:23:02.523Z,96495.25
2019-01-28T20:25:31.785Z,96497.15
2019-01-28T20:28:01.128Z,96502.37
2019-01-28T20:30:30.355Z,96507.97
2019-01-28T20:33:01.667Z,96513.35
2019-01-28T20:35:31.316Z,96527.69
2019-01-28T20:38:02.476Z,96522.52
2019-01-28T20:40:33.320Z,96529.70
2019-01-28T20:43:04.494Z,96532.72
2019-01-28T20:45:36.280Z,96534.85
2019-01-28T20:48:08.075Z,96537.08
2019-01-28T20:50:39.800Z,96547.83
2019-01-28T20:53:11.384Z,96552.09
2019-01-28T20:55:43.430Z,96568.22
2019-01-28T20:58:15.034Z,96574.94
2019-01-28T21:00:46.877Z,96582.30
2019-01-28T21:03:17.927Z,96586.71
2019-01-28T21:05:49.388Z,96596.67
2019-01-28T21:08:20.771Z,96600.88
2019-01-28T21:10:52.261Z,96607.51
2019-01-28T21:13:25.842Z,96603.02
2019-01-28T21:15:57.012Z,96615.19
2019-01-28T21:18:27.672Z,96626.17
2019-01-28T21:20:57.195Z,96629.09
2019-01-28T21:23:27.879Z,96628.55
2019-01-28T21:25:57.355Z,96634.97
2019-01-28T21:28:26.641Z,96634.73
2019-01-28T21:30:57.848Z,96642.36
2019-01-28T21:33:27.686Z,96648.48
2019-01-28T21:36:19.862Z,96644.77
2019-01-28T21:38:50.999Z,96655.67
2019-01-28T21:41:21.677Z,96660.02
2019-01-28T21:43:50.934Z,96662.86
2019-01-28T21:46:20.811Z,96676.30
2019-01-28T21:48:50.249Z,96679.69
2019-01-28T21:51:19.512Z,96678.98
2019-01-28T21:53:48.775Z,96677.41
2019-01-28T21:56:18.025Z,96680.56
2019-01-28T21:58:47.850Z,96679.92
2019-01-28T22:01:17.135Z,96692.98
2019-01-28T22:03:46.523Z,96693.06
2019-01-28T22:06:15.899Z,96693.37
2019-01-28T22:08:45.269Z,96703.33
2019-01-28T22:11:14.551Z,96696.06
2019-01-28T22:13:43.818Z,96710.61
2019-01-28T22:16:13.939Z,96715.69
2019-01-28T22:18:43.237Z,96715.69
2019-01-28T22:21:13.645Z,96723.68
2019-01-28T22:23:43.647Z,96725.02
2019-01-28T22:26:13.671Z,96735.92
2019-01-28T22:28:43.453Z,96744.78
2019-01-28T22:31:15.407Z,96735.69
2019-01-28T22:33:44.695Z,96745.42
2019-01-28T22:36:13.982Z,96744.03
2019-01-28T22:38:44.114Z,96746.72
2019-01-28T22:41:14.534Z,96755.38
2019-01-28T22:43:44.014Z,96759.33
2019-01-28T22:46:14.933Z,96763.55
2019-01-28T22:48:44.210Z,96763.95
2019-01-28T22:51:13.893Z,96776.57
2019-01-28T22:53:43.682Z,96777.67
2019-01-28T22:56:13.050Z,96779.89
2019-01-28T22:58:42.312Z,96777.91
2019-01-28T23:01:27.958Z,96777.67
2019-01-28T23:03:57.205Z,96787.08
2019-01-28T23:06:26.573Z,96791.83
2019-01-28T23:08:55.847Z,96784.95
2019-01-28T23:11:25.134Z,96792.54
2019-01-28T23:13:54.390Z,96798.78
2019-01-28T23:16:23.643Z,96798.23
2019-01-28T23:18:52.910Z,96788.03
2019-01-28T23:21:22.173Z,96801.87
2019-01-28T23:23:51.458Z,96793.76
2019-01-28T23:26:20.711Z,96803.72
2019-01-28T23:28:50.145Z,96807.67
2019-01-28T23:31:19.433Z,96805.42
2019-01-28T23:33:49.953Z,96803.80
2019-01-28T23:36:19.464Z,96817.23
2019-01-28T23:38:48.718Z,96820.63
2019-01-28T23:41:18.566Z,96821.03
2019-01-28T23:43:47.843Z,96827.03
2019-01-28T23:46:17.089Z,96822.71
2019-01-28T23:48:46.362Z,96835.41
2019-01-28T23:51:15.607Z,96834.62
2019-01-28T23:53:44.866Z,96834.23
2019-01-28T23:56:14.141Z,96844.42
2019-01-28T23:58:43.396Z,96848.30
